sensor_id;sensor_type;location;lat;lon;timestamp;temperature;humidity
19180;DHT22;9722;48.754;8.868;2024-01-11T00:01:32;-5.70;92.40
19180;DHT22;9722;48.754;8.868;2024-01-11T00:04:53;-5.70;92.40
19180;DHT22;9722;48.754;8.868;2024-01-11T00:08:14;-5.70;92.50
19180;DHT22;9722;48.754;8.868;2024-01-11T00:11:34;-5.70;92.60
19180;DHT22;9722;48.754;8.868;2024-01-11T00:14:55;-5.70;92.60
19180;DHT22;9722;48.754;8.868;2024-01-11T00:18:15;-5.70;92.70
19180;DHT22;9722;48.754;8.868;2024-01-11T00:21:37;-5.50;92.90
19180;DHT22;9722;48.754;8.868;2024-01-11T00:24:58;-5.70;92.90
19180;DHT22;9722;48.754;8.868;2024-01-11T00:28:19;-5.70;92.90
19180;DHT22;9722;48.754;8.868;2024-01-11T00:31:39;-5.80;92.90
19180;DHT22;9722;48.754;8.868;2024-01-11T00:35:00;-5.80;93.00
19180;DHT22;9722;48.754;8.868;2024-01-11T00:38:20;-5.80;93.10
19180;DHT22;9722;48.754;8.868;2024-01-11T00:41:41;-5.80;93.20
19180;DHT22;9722;48.754;8.868;2024-01-11T00:45:01;-5.80;93.20
19180;DHT22;9722;48.754;8.868;2024-01-11T00:48:22;-5.80;93.30
19180;DHT22;9722;48.754;8.868;2024-01-11T00:51:42;-5.80;93.50
19180;DHT22;9722;48.754;8.868;2024-01-11T00:55:03;-5.80;93.40
19180;DHT22;9722;48.754;8.868;2024-01-11T00:58:23;-5.80;93.50
19180;DHT22;9722;48.754;8.868;2024-01-11T01:01:48;-5.90;93.50
19180;DHT22;9722;48.754;8.868;2024-01-11T01:05:09;-5.90;93.50
19180;DHT22;9722;48.754;8.868;2024-01-11T01:08:29;-5.90;93.70
19180;DHT22;9722;48.754;8.868;2024-01-11T01:11:50;-5.90;93.70
19180;DHT22;9722;48.754;8.868;2024-01-11T01:15:10;-5.90;93.70
19180;DHT22;9722;48.754;8.868;2024-01-11T01:18:31;-5.90;93.70
19180;DHT22;9722;48.754;8.868;2024-01-11T01:21:51;-5.90;93.70
19180;DHT22;9722;48.754;8.868;2024-01-11T01:25:12;-6.00;93.70
19180;DHT22;9722;48.754;8.868;2024-01-11T01:28:32;-6.00;93.70
19180;DHT22;9722;48.754;8.868;2024-01-11T01:31:53;-6.00;93.90
19180;DHT22;9722;48.754;8.868;2024-01-11T01:35:13;-6.10;93.90
19180;DHT22;9722;48.754;8.868;2024-01-11T01:38:34;-6.00;94.00
19180;DHT22;9722;48.754;8.868;2024-01-11T01:41:54;-6.00;94.10
19180;DHT22;9722;48.754;8.868;2024-01-11T01:45:15;-6.10;94.00
19180;DHT22;9722;48.754;8.868;2024-01-11T01:48:36;-6.10;94.10
19180;DHT22;9722;48.754;8.868;2024-01-11T01:51:56;-6.10;94.10
19180;DHT22;9722;48.754;8.868;2024-01-11T01:55:17;-6.10;94.20
19180;DHT22;9722;48.754;8.868;2024-01-11T01:58:38;-6.20;94.20
19180;DHT22;9722;48.754;8.868;2024-01-11T02:01:59;-6.20;94.30
19180;DHT22;9722;48.754;8.868;2024-01-11T02:05:20;-6.30;94.30
19180;DHT22;9722;48.754;8.868;2024-01-11T02:08:42;-6.30;94.30
19180;DHT22;9722;48.754;8.868;2024-01-11T02:12:04;-6.30;94.30
19180;DHT22;9722;48.754;8.868;2024-01-11T02:15:25;-6.30;94.30
19180;DHT22;9722;48.754;8.868;2024-01-11T02:18:46;-6.40;94.30
19180;DHT22;9722;48.754;8.868;2024-01-11T02:22:30;-6.40;94.40
19180;DHT22;9722;48.754;8.868;2024-01-11T02:25:52;-6.40;94.40
19180;DHT22;9722;48.754;8.868;2024-01-11T02:29:12;-6.40;94.50
19180;DHT22;9722;48.754;8.868;2024-01-11T02:32:33;-6.30;94.60
19180;DHT22;9722;48.754;8.868;2024-01-11T02:35:53;-6.30;94.60
19180;DHT22;9722;48.754;8.868;2024-01-11T02:39:16;-6.30;94.70
19180;DHT22;9722;48.754;8.868;2024-01-11T02:42:37;-6.30;94.70
19180;DHT22;9722;48.754;8.868;2024-01-11T02:45:58;-6.30;94.70
19180;DHT22;9722;48.754;8.868;2024-01-11T02:49:19;-6.30;94.70
19180;DHT22;9722;48.754;8.868;2024-01-11T02:52:40;-6.30;94.70
19180;DHT22;9722;48.754;8.868;2024-01-11T02:56:01;-6.30;94.70
19180;DHT22;9722;48.754;8.868;2024-01-11T02:59:22;-6.40;94.70
19180;DHT22;9722;48.754;8.868;2024-01-11T03:02:42;-6.40;94.70
19180;DHT22;9722;48.754;8.868;2024-01-11T03:06:03;-6.40;94.80
19180;DHT22;9722;48.754;8.868;2024-01-11T03:09:27;-6.40;94.80
19180;DHT22;9722;48.754;8.868;2024-01-11T03:12:48;-6.40;94.90
19180;DHT22;9722;48.754;8.868;2024-01-11T03:16:09;-6.40;95.00
19180;DHT22;9722;48.754;8.868;2024-01-11T03:19:30;-6.50;94.90
19180;DHT22;9722;48.754;8.868;2024-01-11T03:22:51;-6.50;94.90
19180;DHT22;9722;48.754;8.868;2024-01-11T03:26:16;-6.40;95.00
19180;DHT22;9722;48.754;8.868;2024-01-11T03:29:37;-6.50;95.00
19180;DHT22;9722;48.754;8.868;2024-01-11T03:32:57;-6.40;95.10
19180;DHT22;9722;48.754;8.868;2024-01-11T03:36:18;-6.50;95.00
19180;DHT22;9722;48.754;8.868;2024-01-11T03:39:38;-6.50;95.00
19180;DHT22;9722;48.754;8.868;2024-01-11T03:42:59;-6.50;95.00
19180;DHT22;9722;48.754;8.868;2024-01-11T03:46:20;-6.50;95.00
19180;DHT22;9722;48.754;8.868;2024-01-11T03:49:40;-6.50;95.10
19180;DHT22;9722;48.754;8.868;2024-01-11T03:53:01;-6.50;95.10
19180;DHT22;9722;48.754;8.868;2024-01-11T03:56:21;-6.50;95.20
19180;DHT22;9722;48.754;8.868;2024-01-11T03:59:42;-6.50;95.20
19180;DHT22;9722;48.754;8.868;2024-01-11T04:03:02;-6.50;95.20
19180;DHT22;9722;48.754;8.868;2024-01-11T04:06:23;-6.50;95.20
19180;DHT22;9722;48.754;8.868;2024-01-11T04:09:44;-6.50;95.20
19180;DHT22;9722;48.754;8.868;2024-01-11T04:13:06;-6.50;95.30
19180;DHT22;9722;48.754;8.868;2024-01-11T04:16:27;-6.50;95.30
19180;DHT22;9722;48.754;8.868;2024-01-11T04:19:48;-6.50;95.30
19180;DHT22;9722;48.754;8.868;2024-01-11T04:23:08;-6.50;95.30
19180;DHT22;9722;48.754;8.868;2024-01-11T04:26:28;-6.50;95.30
19180;DHT22;9722;48.754;8.868;2024-01-11T04:29:49;-6.50;95.40
19180;DHT22;9722;48.754;8.868;2024-01-11T04:33:10;-6.50;95.30
19180;DHT22;9722;48.754;8.868;2024-01-11T04:36:30;-6.50;95.30
19180;DHT22;9722;48.754;8.868;2024-01-11T04:39:51;-6.50;95.30
19180;DHT22;9722;48.754;8.868;2024-01-11T04:43:11;-6.60;95.30
19180;DHT22;9722;48.754;8.868;2024-01-11T04:46:32;-6.60;95.30
19180;DHT22;9722;48.754;8.868;2024-01-11T04:49:52;-6.60;95.30
19180;DHT22;9722;48.754;8.868;2024-01-11T04:53:13;-6.70;95.30
19180;DHT22;9722;48.754;8.868;2024-01-11T04:56:33;-6.70;95.40
19180;DHT22;9722;48.754;8.868;2024-01-11T04:59:54;-6.80;95.40
19180;DHT22;9722;48.754;8.868;2024-01-11T05:03:14;-6.80;95.40
19180;DHT22;9722;48.754;8.868;2024-01-11T05:06:35;-6.80;95.50
19180;DHT22;9722;48.754;8.868;2024-01-11T05:09:55;-6.90;95.50
19180;DHT22;9722;48.754;8.868;2024-01-11T05:13:16;-6.90;95.50
19180;DHT22;9722;48.754;8.868;2024-01-11T05:16:37;-6.90;95.60
19180;DHT22;9722;48.754;8.868;2024-01-11T05:19:59;-6.90;95.60
19180;DHT22;9722;48.754;8.868;2024-01-11T05:23:20;-6.90;95.70
19180;DHT22;9722;48.754;8.868;2024-01-11T05:26:40;-6.90;95.70
19180;DHT22;9722;48.754;8.868;2024-01-11T05:30:01;-6.90;95.80
19180;DHT22;9722;48.754;8.868;2024-01-11T05:33:21;-6.80;95.80
19180;DHT22;9722;48.754;8.868;2024-01-11T05:36:42;-6.90;95.70
19180;DHT22;9722;48.754;8.868;2024-01-11T05:40:02;-6.90;95.70
19180;DHT22;9722;48.754;8.868;2024-01-11T05:43:23;-6.90;95.70
19180;DHT22;9722;48.754;8.868;2024-01-11T05:46:43;-6.90;95.70
19180;DHT22;9722;48.754;8.868;2024-01-11T05:50:04;-6.80;95.80
19180;DHT22;9722;48.754;8.868;2024-01-11T05:53:25;-6.80;95.90
19180;DHT22;9722;48.754;8.868;2024-01-11T05:56:47;-6.80;95.90
19180;DHT22;9722;48.754;8.868;2024-01-11T06:00:08;-6.80;95.90
19180;DHT22;9722;48.754;8.868;2024-01-11T06:03:29;-6.80;95.90
19180;DHT22;9722;48.754;8.868;2024-01-11T06:06:50;-6.80;95.90
19180;DHT22;9722;48.754;8.868;2024-01-11T06:10:10;-6.90;95.80
19180;DHT22;9722;48.754;8.868;2024-01-11T06:13:31;-6.90;96.20
19180;DHT22;9722;48.754;8.868;2024-01-11T06:16:51;-6.90;95.90
19180;DHT22;9722;48.754;8.868;2024-01-11T06:20:12;-6.90;95.90
19180;DHT22;9722;48.754;8.868;2024-01-11T06:23:32;-6.90;95.90
19180;DHT22;9722;48.754;8.868;2024-01-11T06:26:53;-6.90;95.90
19180;DHT22;9722;48.754;8.868;2024-01-11T06:30:13;-6.90;95.90
19180;DHT22;9722;48.754;8.868;2024-01-11T06:33:34;-6.90;95.90
19180;DHT22;9722;48.754;8.868;2024-01-11T06:36:57;-7.00;95.90
19180;DHT22;9722;48.754;8.868;2024-01-11T06:40:17;-7.00;95.90
19180;DHT22;9722;48.754;8.868;2024-01-11T06:43:39;-6.90;96.10
19180;DHT22;9722;48.754;8.868;2024-01-11T06:47:00;-6.90;96.10
19180;DHT22;9722;48.754;8.868;2024-01-11T06:50:22;-6.80;96.20
19180;DHT22;9722;48.754;8.868;2024-01-11T06:53:42;-6.80;96.20
19180;DHT22;9722;48.754;8.868;2024-01-11T06:57:03;-6.80;96.10
19180;DHT22;9722;48.754;8.868;2024-01-11T07:00:23;-6.90;96.10
19180;DHT22;9722;48.754;8.868;2024-01-11T07:03:44;-6.90;96.10
19180;DHT22;9722;48.754;8.868;2024-01-11T07:07:04;-6.90;96.10
19180;DHT22;9722;48.754;8.868;2024-01-11T07:10:25;-6.90;96.10
19180;DHT22;9722;48.754;8.868;2024-01-11T07:13:46;-6.90;96.10
19180;DHT22;9722;48.754;8.868;2024-01-11T07:17:06;-6.90;96.20
19180;DHT22;9722;48.754;8.868;2024-01-11T07:20:27;-6.90;96.20
19180;DHT22;9722;48.754;8.868;2024-01-11T07:23:48;-6.90;96.20
19180;DHT22;9722;48.754;8.868;2024-01-11T07:27:08;-6.90;96.20
19180;DHT22;9722;48.754;8.868;2024-01-11T07:30:29;-6.90;96.20
19180;DHT22;9722;48.754;8.868;2024-01-11T07:33:49;-6.80;96.30
19180;DHT22;9722;48.754;8.868;2024-01-11T07:37:10;-6.80;96.30
19180;DHT22;9722;48.754;8.868;2024-01-11T07:40:31;-6.60;96.60
19180;DHT22;9722;48.754;8.868;2024-01-11T07:43:51;-6.30;96.70
19180;DHT22;9722;48.754;8.868;2024-01-11T07:47:12;-5.70;96.80
19180;DHT22;9722;48.754;8.868;2024-01-11T07:50:32;-5.20;96.40
19180;DHT22;9722;48.754;8.868;2024-01-11T07:53:53;-4.70;95.90
19180;DHT22;9722;48.754;8.868;2024-01-11T07:57:13;-4.10;95.70
19180;DHT22;9722;48.754;8.868;2024-01-11T08:00:34;-3.50;95.40
19180;DHT22;9722;48.754;8.868;2024-01-11T08:03:54;-2.90;94.90
19180;DHT22;9722;48.754;8.868;2024-01-11T08:07:15;-2.30;94.30
19180;DHT22;9722;48.754;8.868;2024-01-11T08:10:36;-1.70;93.60
19180;DHT22;9722;48.754;8.868;2024-01-11T08:13:56;-1.10;93.00
19180;DHT22;9722;48.754;8.868;2024-01-11T08:17:17;-0.50;92.10
19180;DHT22;9722;48.754;8.868;2024-01-11T08:20:39;0.10;91.20
19180;DHT22;9722;48.754;8.868;2024-01-11T08:24:00;0.70;90.10
19180;DHT22;9722;48.754;8.868;2024-01-11T08:27:20;1.30;87.50
19180;DHT22;9722;48.754;8.868;2024-01-11T08:30:40;1.80;84.90
19180;DHT22;9722;48.754;8.868;2024-01-11T08:34:02;2.40;82.30
19180;DHT22;9722;48.754;8.868;2024-01-11T08:37:23;3.00;79.00
19180;DHT22;9722;48.754;8.868;2024-01-11T08:40:43;3.40;75.90
19180;DHT22;9722;48.754;8.868;2024-01-11T08:44:04;3.80;73.70
19180;DHT22;9722;48.754;8.868;2024-01-11T08:47:28;3.60;71.20
19180;DHT22;9722;48.754;8.868;2024-01-11T08:50:48;2.80;70.40
19180;DHT22;9722;48.754;8.868;2024-01-11T08:54:09;1.90;71.30
19180;DHT22;9722;48.754;8.868;2024-01-11T08:57:31;1.10;72.20
19180;DHT22;9722;48.754;8.868;2024-01-11T09:00:52;0.50;73.10
19180;DHT22;9722;48.754;8.868;2024-01-11T09:04:12;0.40;74.70
19180;DHT22;9722;48.754;8.868;2024-01-11T09:07:33;1.20;75.20
19180;DHT22;9722;48.754;8.868;2024-01-11T09:10:54;2.50;73.30
19180;DHT22;9722;48.754;8.868;2024-01-11T09:14:14;3.80;71.10
19180;DHT22;9722;48.754;8.868;2024-01-11T09:17:35;5.10;68.40
19180;DHT22;9722;48.754;8.868;2024-01-11T09:20:55;6.30;65.50
19180;DHT22;9722;48.754;8.868;2024-01-11T09:24:16;7.30;62.80
19180;DHT22;9722;48.754;8.868;2024-01-11T09:27:37;8.30;60.60
19180;DHT22;9722;48.754;8.868;2024-01-11T09:30:57;9.20;58.60
19180;DHT22;9722;48.754;8.868;2024-01-11T09:34:20;9.90;56.30
19180;DHT22;9722;48.754;8.868;2024-01-11T09:37:40;10.50;54.30
19180;DHT22;9722;48.754;8.868;2024-01-11T09:41:09;11.10;52.80
19180;DHT22;9722;48.754;8.868;2024-01-11T09:44:32;11.60;51.70
19180;DHT22;9722;48.754;8.868;2024-01-11T09:47:53;12.20;50.80
19180;DHT22;9722;48.754;8.868;2024-01-11T09:51:15;12.70;49.40
19180;DHT22;9722;48.754;8.868;2024-01-11T09:54:36;13.30;48.30
19180;DHT22;9722;48.754;8.868;2024-01-11T09:58:00;13.60;47.10
19180;DHT22;9722;48.754;8.868;2024-01-11T10:01:22;13.90;46.00
19180;DHT22;9722;48.754;8.868;2024-01-11T10:04:43;14.20;45.30
19180;DHT22;9722;48.754;8.868;2024-01-11T10:08:03;14.50;44.60
19180;DHT22;9722;48.754;8.868;2024-01-11T10:11:25;14.80;44.00
19180;DHT22;9722;48.754;8.868;2024-01-11T10:14:45;14.80;43.10
19180;DHT22;9722;48.754;8.868;2024-01-11T10:18:06;14.70;42.80
19180;DHT22;9722;48.754;8.868;2024-01-11T10:21:27;14.70;42.10
19180;DHT22;9722;48.754;8.868;2024-01-11T10:24:49;14.40;41.70
19180;DHT22;9722;48.754;8.868;2024-01-11T10:28:13;14.20;41.70
19180;DHT22;9722;48.754;8.868;2024-01-11T10:31:33;14.50;41.80
19180;DHT22;9722;48.754;8.868;2024-01-11T10:34:55;14.60;40.70
19180;DHT22;9722;48.754;8.868;2024-01-11T10:38:17;14.60;40.60
19180;DHT22;9722;48.754;8.868;2024-01-11T10:41:40;14.70;40.30
19180;DHT22;9722;48.754;8.868;2024-01-11T10:45:03;14.90;39.80
19180;DHT22;9722;48.754;8.868;2024-01-11T10:48:25;15.00;39.40
19180;DHT22;9722;48.754;8.868;2024-01-11T10:51:53;15.20;39.50
19180;DHT22;9722;48.754;8.868;2024-01-11T10:55:15;15.50;39.10
19180;DHT22;9722;48.754;8.868;2024-01-11T10:58:36;15.90;39.20
19180;DHT22;9722;48.754;8.868;2024-01-11T11:02:04;16.30;39.00
19180;DHT22;9722;48.754;8.868;2024-01-11T11:05:28;16.70;38.60
19180;DHT22;9722;48.754;8.868;2024-01-11T11:08:52;17.20;38.60
19180;DHT22;9722;48.754;8.868;2024-01-11T11:12:13;17.60;38.00
19180;DHT22;9722;48.754;8.868;2024-01-11T11:15:35;17.60;37.40
19180;DHT22;9722;48.754;8.868;2024-01-11T11:18:57;17.70;37.50
19180;DHT22;9722;48.754;8.868;2024-01-11T11:22:18;18.00;37.50
19180;DHT22;9722;48.754;8.868;2024-01-11T11:25:40;18.10;37.30
19180;DHT22;9722;48.754;8.868;2024-01-11T11:29:01;18.30;37.00
19180;DHT22;9722;48.754;8.868;2024-01-11T11:32:35;18.40;36.70
19180;DHT22;9722;48.754;8.868;2024-01-11T11:35:59;18.40;36.10
19180;DHT22;9722;48.754;8.868;2024-01-11T11:39:20;18.50;36.10
19180;DHT22;9722;48.754;8.868;2024-01-11T11:42:42;18.80;36.10
19180;DHT22;9722;48.754;8.868;2024-01-11T11:46:02;19.00;35.60
19180;DHT22;9722;48.754;8.868;2024-01-11T11:49:57;19.30;35.70
19180;DHT22;9722;48.754;8.868;2024-01-11T11:53:19;19.70;34.80
19180;DHT22;9722;48.754;8.868;2024-01-11T11:56:41;19.90;34.70
19180;DHT22;9722;48.754;8.868;2024-01-11T12:00:02;19.90;34.60
19180;DHT22;9722;48.754;8.868;2024-01-11T12:03:29;20.20;34.20
19180;DHT22;9722;48.754;8.868;2024-01-11T12:06:54;20.30;33.80
19180;DHT22;9722;48.754;8.868;2024-01-11T12:10:14;20.50;33.50
19180;DHT22;9722;48.754;8.868;2024-01-11T12:13:35;20.50;33.30
19180;DHT22;9722;48.754;8.868;2024-01-11T12:16:59;20.70;33.40
19180;DHT22;9722;48.754;8.868;2024-01-11T12:20:19;21.10;33.10
19180;DHT22;9722;48.754;8.868;2024-01-11T12:23:43;21.50;32.60
19180;DHT22;9722;48.754;8.868;2024-01-11T12:27:04;21.50;32.20
19180;DHT22;9722;48.754;8.868;2024-01-11T12:30:28;21.40;32.20
19180;DHT22;9722;48.754;8.868;2024-01-11T12:33:50;21.70;32.00
19180;DHT22;9722;48.754;8.868;2024-01-11T12:37:11;21.70;32.50
19180;DHT22;9722;48.754;8.868;2024-01-11T12:40:38;21.60;32.00
19180;DHT22;9722;48.754;8.868;2024-01-11T12:43:59;21.60;31.90
19180;DHT22;9722;48.754;8.868;2024-01-11T12:47:19;21.70;31.70
19180;DHT22;9722;48.754;8.868;2024-01-11T12:50:41;21.40;31.50
19180;DHT22;9722;48.754;8.868;2024-01-11T12:54:01;21.10;31.70
19180;DHT22;9722;48.754;8.868;2024-01-11T12:57:24;20.90;31.80
19180;DHT22;9722;48.754;8.868;2024-01-11T13:00:45;20.80;31.70
19180;DHT22;9722;48.754;8.868;2024-01-11T13:04:09;20.70;31.60
19180;DHT22;9722;48.754;8.868;2024-01-11T13:07:30;20.60;32.00
19180;DHT22;9722;48.754;8.868;2024-01-11T13:10:51;20.70;32.00
19180;DHT22;9722;48.754;8.868;2024-01-11T13:14:11;20.80;31.70
19180;DHT22;9722;48.754;8.868;2024-01-11T13:17:39;20.90;31.80
19180;DHT22;9722;48.754;8.868;2024-01-11T13:20:59;21.00;31.90
19180;DHT22;9722;48.754;8.868;2024-01-11T13:24:20;21.00;31.60
19180;DHT22;9722;48.754;8.868;2024-01-11T13:27:40;21.00;31.50
19180;DHT22;9722;48.754;8.868;2024-01-11T13:31:01;20.80;31.30
19180;DHT22;9722;48.754;8.868;2024-01-11T13:34:22;20.70;31.30
19180;DHT22;9722;48.754;8.868;2024-01-11T13:37:43;20.50;31.40
19180;DHT22;9722;48.754;8.868;2024-01-11T13:41:04;20.40;31.40
19180;DHT22;9722;48.754;8.868;2024-01-11T13:44:25;20.30;31.30
19180;DHT22;9722;48.754;8.868;2024-01-11T13:47:46;20.10;31.20
19180;DHT22;9722;48.754;8.868;2024-01-11T13:51:06;19.80;31.50
19180;DHT22;9722;48.754;8.868;2024-01-11T13:54:29;19.60;31.30
19180;DHT22;9722;48.754;8.868;2024-01-11T13:57:50;19.40;31.30
19180;DHT22;9722;48.754;8.868;2024-01-11T14:01:11;19.20;31.30
19180;DHT22;9722;48.754;8.868;2024-01-11T14:04:32;19.10;31.40
19180;DHT22;9722;48.754;8.868;2024-01-11T14:07:53;18.70;31.50
19180;DHT22;9722;48.754;8.868;2024-01-11T14:11:18;18.40;31.70
19180;DHT22;9722;48.754;8.868;2024-01-11T14:14:39;18.10;31.90
19180;DHT22;9722;48.754;8.868;2024-01-11T14:18:00;17.80;32.00
19180;DHT22;9722;48.754;8.868;2024-01-11T14:21:20;17.40;32.30
19180;DHT22;9722;48.754;8.868;2024-01-11T14:24:41;17.10;32.60
19180;DHT22;9722;48.754;8.868;2024-01-11T14:28:01;16.80;32.80
19180;DHT22;9722;48.754;8.868;2024-01-11T14:31:22;16.40;33.30
19180;DHT22;9722;48.754;8.868;2024-01-11T14:34:43;15.80;33.50
19180;DHT22;9722;48.754;8.868;2024-01-11T14:38:06;14.30;34.20
19180;DHT22;9722;48.754;8.868;2024-01-11T14:41:27;12.40;35.50
19180;DHT22;9722;48.754;8.868;2024-01-11T14:44:47;10.70;37.10
19180;DHT22;9722;48.754;8.868;2024-01-11T14:48:08;9.20;39.30
19180;DHT22;9722;48.754;8.868;2024-01-11T14:51:28;8.00;40.80
19180;DHT22;9722;48.754;8.868;2024-01-11T14:54:51;6.90;42.30
19180;DHT22;9722;48.754;8.868;2024-01-11T14:58:12;6.00;43.60
19180;DHT22;9722;48.754;8.868;2024-01-11T15:01:32;5.30;44.80
19180;DHT22;9722;48.754;8.868;2024-01-11T15:04:53;4.60;45.70
19180;DHT22;9722;48.754;8.868;2024-01-11T15:08:13;4.10;46.60
19180;DHT22;9722;48.754;8.868;2024-01-11T15:11:34;3.60;47.30
19180;DHT22;9722;48.754;8.868;2024-01-11T15:14:56;3.20;48.20
19180;DHT22;9722;48.754;8.868;2024-01-11T15:18:16;2.80;48.60
19180;DHT22;9722;48.754;8.868;2024-01-11T15:21:38;2.50;49.30
19180;DHT22;9722;48.754;8.868;2024-01-11T15:24:58;2.20;50.20
19180;DHT22;9722;48.754;8.868;2024-01-11T15:28:19;1.90;50.90
19180;DHT22;9722;48.754;8.868;2024-01-11T15:31:40;1.70;51.40
19180;DHT22;9722;48.754;8.868;2024-01-11T15:35:03;1.50;51.60
19180;DHT22;9722;48.754;8.868;2024-01-11T15:38:24;1.20;52.40
19180;DHT22;9722;48.754;8.868;2024-01-11T15:41:45;1.10;52.80
19180;DHT22;9722;48.754;8.868;2024-01-11T15:45:07;0.90;53.40
19180;DHT22;9722;48.754;8.868;2024-01-11T15:48:28;0.70;53.80
19180;DHT22;9722;48.754;8.868;2024-01-11T15:51:48;0.50;54.10
19180;DHT22;9722;48.754;8.868;2024-01-11T15:55:09;0.40;54.40
19180;DHT22;9722;48.754;8.868;2024-01-11T15:58:30;0.20;54.70
19180;DHT22;9722;48.754;8.868;2024-01-11T16:01:50;0.00;54.90
19180;DHT22;9722;48.754;8.868;2024-01-11T16:05:11;-0.10;55.00
19180;DHT22;9722;48.754;8.868;2024-01-11T16:08:31;-0.30;55.40
19180;DHT22;9722;48.754;8.868;2024-01-11T16:11:52;-0.40;55.70
19180;DHT22;9722;48.754;8.868;2024-01-11T16:15:12;-0.60;55.70
19180;DHT22;9722;48.754;8.868;2024-01-11T16:18:34;-0.70;56.00
19180;DHT22;9722;48.754;8.868;2024-01-11T16:21:56;-0.80;56.50
19180;DHT22;9722;48.754;8.868;2024-01-11T16:25:16;-0.90;57.00
19180;DHT22;9722;48.754;8.868;2024-01-11T16:28:37;-1.00;57.40
19180;DHT22;9722;48.754;8.868;2024-01-11T16:31:57;-1.10;57.50
19180;DHT22;9722;48.754;8.868;2024-01-11T16:35:18;-1.10;57.70
19180;DHT22;9722;48.754;8.868;2024-01-11T16:38:39;-1.20;58.10
19180;DHT22;9722;48.754;8.868;2024-01-11T16:42:00;-1.30;58.40
19180;DHT22;9722;48.754;8.868;2024-01-11T16:45:20;-1.30;58.50
19180;DHT22;9722;48.754;8.868;2024-01-11T16:48:41;-1.40;58.40
19180;DHT22;9722;48.754;8.868;2024-01-11T16:52:01;-1.40;58.70
19180;DHT22;9722;48.754;8.868;2024-01-11T16:55:24;-1.50;59.20
19180;DHT22;9722;48.754;8.868;2024-01-11T16:58:45;-1.50;60.80
19180;DHT22;9722;48.754;8.868;2024-01-11T17:02:05;-1.50;61.80
19180;DHT22;9722;48.754;8.868;2024-01-11T17:05:26;-1.50;61.90
19180;DHT22;9722;48.754;8.868;2024-01-11T17:08:47;-1.60;62.30
19180;DHT22;9722;48.754;8.868;2024-01-11T17:12:08;-1.70;61.30
19180;DHT22;9722;48.754;8.868;2024-01-11T17:15:28;-1.80;61.30
19180;DHT22;9722;48.754;8.868;2024-01-11T17:18:49;-1.80;61.40
19180;DHT22;9722;48.754;8.868;2024-01-11T17:22:09;-1.40;61.90
19180;DHT22;9722;48.754;8.868;2024-01-11T17:25:30;-2.00;61.60
19180;DHT22;9722;48.754;8.868;2024-01-11T17:28:50;-2.10;61.80
19180;DHT22;9722;48.754;8.868;2024-01-11T17:32:12;-2.10;62.20
19180;DHT22;9722;48.754;8.868;2024-01-11T17:35:32;-2.20;63.40
19180;DHT22;9722;48.754;8.868;2024-01-11T17:38:53;-2.20;64.30
19180;DHT22;9722;48.754;8.868;2024-01-11T17:42:14;-2.20;64.90
19180;DHT22;9722;48.754;8.868;2024-01-11T17:45:35;-2.30;65.00
19180;DHT22;9722;48.754;8.868;2024-01-11T17:48:57;-2.30;65.80
19180;DHT22;9722;48.754;8.868;2024-01-11T17:52:21;-2.40;66.20
19180;DHT22;9722;48.754;8.868;2024-01-11T17:55:41;-2.40;66.70
19180;DHT22;9722;48.754;8.868;2024-01-11T17:59:02;-2.30;67.60
19180;DHT22;9722;48.754;8.868;2024-01-11T18:02:25;-2.40;67.40
19180;DHT22;9722;48.754;8.868;2024-01-11T18:05:46;-2.50;67.70
19180;DHT22;9722;48.754;8.868;2024-01-11T18:09:06;-2.60;68.00
19180;DHT22;9722;48.754;8.868;2024-01-11T18:12:26;-2.70;68.00
19180;DHT22;9722;48.754;8.868;2024-01-11T18:15:50;-2.70;68.00
19180;DHT22;9722;48.754;8.868;2024-01-11T18:19:10;-2.90;67.90
19180;DHT22;9722;48.754;8.868;2024-01-11T18:22:33;-2.90;67.70
19180;DHT22;9722;48.754;8.868;2024-01-11T18:25:54;-3.00;67.80
19180;DHT22;9722;48.754;8.868;2024-01-11T18:29:15;-3.00;68.10
19180;DHT22;9722;48.754;8.868;2024-01-11T18:32:35;-3.10;68.80
19180;DHT22;9722;48.754;8.868;2024-01-11T18:35:56;-3.10;68.70
19180;DHT22;9722;48.754;8.868;2024-01-11T18:39:16;-3.10;68.70
19180;DHT22;9722;48.754;8.868;2024-01-11T18:42:37;-3.10;68.70
19180;DHT22;9722;48.754;8.868;2024-01-11T18:45:58;-3.10;68.80
19180;DHT22;9722;48.754;8.868;2024-01-11T18:49:19;-3.20;68.70
19180;DHT22;9722;48.754;8.868;2024-01-11T18:52:40;-3.20;68.80
19180;DHT22;9722;48.754;8.868;2024-01-11T18:56:02;-3.30;68.80
19180;DHT22;9722;48.754;8.868;2024-01-11T18:59:23;-3.30;69.20
19180;DHT22;9722;48.754;8.868;2024-01-11T19:02:44;-3.30;69.30
19180;DHT22;9722;48.754;8.868;2024-01-11T19:06:07;-3.30;69.50
19180;DHT22;9722;48.754;8.868;2024-01-11T19:09:28;-3.30;69.60
19180;DHT22;9722;48.754;8.868;2024-01-11T19:12:48;-3.40;69.90
19180;DHT22;9722;48.754;8.868;2024-01-11T19:16:09;-3.40;70.70
19180;DHT22;9722;48.754;8.868;2024-01-11T19:19:30;-3.40;71.10
19180;DHT22;9722;48.754;8.868;2024-01-11T19:22:51;-3.50;72.40
19180;DHT22;9722;48.754;8.868;2024-01-11T19:26:12;-3.60;72.10
19180;DHT22;9722;48.754;8.868;2024-01-11T19:29:32;-3.70;72.40
19180;DHT22;9722;48.754;8.868;2024-01-11T19:32:53;-3.80;73.00
19180;DHT22;9722;48.754;8.868;2024-01-11T19:36:14;-3.80;73.30
19180;DHT22;9722;48.754;8.868;2024-01-11T19:39:34;-3.90;74.00
19180;DHT22;9722;48.754;8.868;2024-01-11T19:42:55;-4.00;74.70
19180;DHT22;9722;48.754;8.868;2024-01-11T19:46:18;-4.00;75.10
19180;DHT22;9722;48.754;8.868;2024-01-11T19:49:39;-4.10;75.40
19180;DHT22;9722;48.754;8.868;2024-01-11T19:53:00;-4.20;75.50
19180;DHT22;9722;48.754;8.868;2024-01-11T19:56:22;-4.20;75.50
19180;DHT22;9722;48.754;8.868;2024-01-11T19:59:42;-4.20;75.50
19180;DHT22;9722;48.754;8.868;2024-01-11T20:03:03;-4.30;76.00
19180;DHT22;9722;48.754;8.868;2024-01-11T20:06:24;-4.30;76.10
19180;DHT22;9722;48.754;8.868;2024-01-11T20:09:44;-4.30;76.10
19180;DHT22;9722;48.754;8.868;2024-01-11T20:13:05;-4.20;76.80
19180;DHT22;9722;48.754;8.868;2024-01-11T20:16:25;-4.20;77.60
19180;DHT22;9722;48.754;8.868;2024-01-11T20:19:46;-4.20;77.90
19180;DHT22;9722;48.754;8.868;2024-01-11T20:23:11;-4.30;78.90
19180;DHT22;9722;48.754;8.868;2024-01-11T20:26:33;-4.30;78.90
19180;DHT22;9722;48.754;8.868;2024-01-11T20:29:54;-4.30;79.40
19180;DHT22;9722;48.754;8.868;2024-01-11T20:33:14;-4.30;79.70
19180;DHT22;9722;48.754;8.868;2024-01-11T20:36:35;-4.40;79.90
19180;DHT22;9722;48.754;8.868;2024-01-11T20:39:55;-4.40;80.20
19180;DHT22;9722;48.754;8.868;2024-01-11T20:43:16;-4.40;80.70
19180;DHT22;9722;48.754;8.868;2024-01-11T20:46:37;-4.40;80.90
19180;DHT22;9722;48.754;8.868;2024-01-11T20:49:57;-4.50;81.20
19180;DHT22;9722;48.754;8.868;2024-01-11T20:53:18;-4.40;81.80
19180;DHT22;9722;48.754;8.868;2024-01-11T20:56:45;-4.40;82.30
19180;DHT22;9722;48.754;8.868;2024-01-11T21:00:06;-4.40;83.40
19180;DHT22;9722;48.754;8.868;2024-01-11T21:03:26;-4.40;84.10
19180;DHT22;9722;48.754;8.868;2024-01-11T21:06:47;-4.40;85.00
19180;DHT22;9722;48.754;8.868;2024-01-11T21:10:08;-4.50;85.40
19180;DHT22;9722;48.754;8.868;2024-01-11T21:13:28;-4.50;85.90
19180;DHT22;9722;48.754;8.868;2024-01-11T21:16:49;-4.50;86.30
19180;DHT22;9722;48.754;8.868;2024-01-11T21:20:10;-4.40;86.50
19180;DHT22;9722;48.754;8.868;2024-01-11T21:23:31;-4.50;86.60
19180;DHT22;9722;48.754;8.868;2024-01-11T21:26:52;-4.50;86.90
19180;DHT22;9722;48.754;8.868;2024-01-11T21:30:13;-4.50;87.40
19180;DHT22;9722;48.754;8.868;2024-01-11T21:33:33;-4.50;87.80